Time,TemperatureF,DewpointF,PressureIn,WindDirection,WindDirectionDegrees,WindSpeedMPH,WindSpeedGustMPH,Humidity,HourlyPrecipIn,Conditions,Clouds,dailyrainin,SoftwareType,DateUTC
2013-06-09 00:01:00,56.9,52.0,30.13,SW,225,0.0,0.0,84,0.00,,,0.00,WUHU216HW,2013-06-09 04:01:00,
2013-06-09 00:06:00,56.7,52.2,30.14,WSW,248,0.0,0.0,85,0.00,,,0.00,WUHU216HW,2013-06-09 04:06:00,
2013-06-09 00:11:00,56.7,52.2,30.14,SW,225,0.0,0.0,85,0.00,,,0.00,WUHU216HW,2013-06-09 04:11:00,
2013-06-09 00:16:00,56.5,52.4,30.14,SW,225,0.0,0.0,86,0.00,,,0.00,WUHU216HW,2013-06-09 04:16:00,
2013-06-09 00:21:00,56.5,52.4,30.14,SW,225,0.0,0.0,86,0.00,,,0.00,WUHU216HW,2013-06-09 04:21:00,
2013-06-09 00:26:00,56.5,52.4,30.14,WSW,248,0.0,0.0,86,0.00,,,0.00,WUHU216HW,2013-06-09 04:26:00,
2013-06-09 00:31:00,56.5,52.4,30.14,SW,225,0.0,0.0,86,0.00,,,0.00,WUHU216HW,2013-06-09 04:31:00,
2013-06-09 00:36:00,56.5,52.7,30.14,SSW,203,0.0,0.0,87,0.00,,,0.00,WUHU216HW,2013-06-09 04:36:00,
2013-06-09 00:41:00,56.5,52.7,30.14,West,270,0.0,0.0,87,0.00,,,0.00,WUHU216HW,2013-06-09 04:41:00,
2013-06-09 00:46:00,56.5,52.7,30.14,WSW,248,0.0,0.0,87,0.00,,,0.00,WUHU216HW,2013-06-09 04:46:00,
2013-06-09 00:51:00,56.5,52.7,30.14,SW,225,0.0,0.0,87,0.00,,,0.00,WUHU216HW,2013-06-09 04:51:00,
2013-06-09 00:56:00,56.5,52.7,30.14,WSW,248,0.0,0.0,87,0.00,,,0.00,WUHU216HW,2013-06-09 04:56:00,
2013-06-09 01:01:00,56.5,52.7,30.14,SW,225,0.0,0.0,87,0.00,,,0.00,WUHU216HW,2013-06-09 05:01:00,
2013-06-09 01:06:00,56.3,52.5,30.14,SSW,203,0.0,0.0,87,0.00,,,0.00,WUHU216HW,2013-06-09 05:06:00,
2013-06-09 01:11:00,56.3,52.5,30.14,SW,225,0.0,0.0,87,0.00,,,0.00,WUHU216HW,2013-06-09 05:11:00,
2013-06-09 01:16:00,56.2,52.3,30.14,SW,225,0.0,0.0,87,0.00,,,0.00,WUHU216HW,2013-06-09 05:16:00,
2013-06-09 01:21:00,56.2,52.3,30.14,SW,225,0.0,0.0,87,0.00,,,0.00,WUHU216HW,2013-06-09 05:21:00,
2013-06-09 01:26:00,56.0,52.1,30.15,SW,225,0.0,0.0,87,0.00,,,0.00,WUHU216HW,2013-06-09 05:26:00,
2013-06-09 01:32:00,56.0,52.5,30.15,SW,225,0.0,0.0,88,0.00,,,0.00,WUHU216HW,2013-06-09 05:32:00,
2013-06-09 01:37:00,56.0,52.5,30.14,SW,225,0.0,0.0,88,0.00,,,0.00,WUHU216HW,2013-06-09 05:37:00,
2013-06-09 01:42:00,55.8,52.3,30.14,SW,225,0.0,0.0,88,0.00,,,0.00,WUHU216HW,2013-06-09 05:42:00,
2013-06-09 01:47:00,55.8,52.3,30.15,SW,225,0.0,0.0,88,0.00,,,0.00,WUHU216HW,2013-06-09 05:47:00,
2013-06-09 01:52:00,55.8,52.3,30.14,SW,225,0.0,0.0,88,0.00,,,0.00,WUHU216HW,2013-06-09 05:52:00,
2013-06-09 01:57:00,55.8,52.3,30.15,SW,225,0.0,0.0,88,0.00,,,0.00,WUHU216HW,2013-06-09 05:57:00,
2013-06-09 02:02:00,55.8,52.3,30.15,SW,225,0.0,0.0,88,0.00,,,0.00,WUHU216HW,2013-06-09 06:02:00,
2013-06-09 02:07:00,55.8,52.3,30.15,SW,225,0.0,0.0,88,0.00,,,0.00,WUHU216HW,2013-06-09 06:07:00,
2013-06-09 02:12:00,55.8,52.3,30.15,SW,225,0.0,0.0,88,0.00,,,0.00,WUHU216HW,2013-06-09 06:12:00,
2013-06-09 02:17:00,55.8,52.3,30.15,SW,225,0.0,0.0,88,0.00,,,0.00,WUHU216HW,2013-06-09 06:17:00,
2013-06-09 02:22:00,55.8,52.3,30.15,SW,225,0.0,0.0,88,0.00,,,0.00,WUHU216HW,2013-06-09 06:22:00,
2013-06-09 02:27:00,55.8,52.3,30.15,WSW,248,0.0,0.0,88,0.00,,,0.00,WUHU216HW,2013-06-09 06:27:00,
2013-06-09 02:32:00,55.8,52.3,30.15,SW,225,0.0,0.0,88,0.00,,,0.00,WUHU216HW,2013-06-09 06:32:00,
2013-06-09 02:37:00,55.8,52.6,30.15,SW,225,0.0,0.0,89,0.00,,,0.00,WUHU216HW,2013-06-09 06:37:00,
2013-06-09 02:42:00,55.6,52.4,30.15,SW,225,0.0,0.0,89,0.00,,,0.00,WUHU216HW,2013-06-09 06:42:00,
2013-06-09 02:47:00,55.6,52.4,30.15,SW,225,0.0,0.0,89,0.00,,,0.00,WUHU216HW,2013-06-09 06:47:00,
2013-06-09 02:52:00,55.6,52.4,30.15,SW,225,0.0,0.0,89,0.00,,,0.00,WUHU216HW,2013-06-09 06:52:00,
2013-06-09 02:57:00,55.4,52.2,30.15,SW,225,0.0,0.0,89,0.00,,,0.00,WUHU216HW,2013-06-09 06:57:00,
2013-06-09 03:02:00,55.4,52.2,30.15,WSW,248,0.0,0.0,89,0.00,,,0.00,WUHU216HW,2013-06-09 07:02:00,
2013-06-09 03:07:00,55.3,52.0,30.16,SW,225,0.0,0.0,89,0.00,,,0.00,WUHU216HW,2013-06-09 07:07:00,
2013-06-09 03:12:00,55.1,51.8,30.16,WSW,248,0.0,0.0,89,0.00,,,0.00,WUHU216HW,2013-06-09 07:12:00,
2013-06-09 03:17:00,55.1,51.8,30.16,SW,225,0.0,0.0,89,0.00,,,0.00,WUHU216HW,2013-06-09 07:17:00,
2013-06-09 03:22:00,54.9,51.7,30.16,SW,225,0.0,0.0,89,0.00,,,0.00,WUHU216HW,2013-06-09 07:22:00,
2013-06-09 03:27:00,54.9,51.7,30.16,SW,225,0.0,0.0,89,0.00,,,0.00,WUHU216HW,2013-06-09 07:27:00,
2013-06-09 03:32:00,54.7,51.5,30.16,WSW,248,0.0,0.0,89,0.00,,,0.00,WUHU216HW,2013-06-09 07:32:00,
2013-06-09 03:37:00,54.7,51.5,30.16,WSW,248,0.0,0.0,89,0.00,,,0.00,WUHU216HW,2013-06-09 07:37:00,
2013-06-09 03:42:00,54.5,51.3,30.17,SW,225,0.0,0.0,89,0.00,,,0.00,WUHU216HW,2013-06-09 07:42:00,
2013-06-09 03:47:00,54.5,51.3,30.17,SSW,203,0.0,0.0,89,0.00,,,0.00,WUHU216HW,2013-06-09 07:47:00,
2013-06-09 03:52:00,54.4,51.2,30.16,SW,225,0.0,0.0,89,0.00,,,0.00,WUHU216HW,2013-06-09 07:52:00,
2013-06-09 03:57:00,54.4,51.2,30.17,SW,225,0.0,0.0,89,0.00,,,0.00,WUHU216HW,2013-06-09 07:57:00,
2013-06-09 04:02:00,54.2,51.0,30.17,SW,225,0.0,0.0,89,0.00,,,0.00,WUHU216HW,2013-06-09 08:02:00,
2013-06-09 04:07:00,54.0,50.9,30.17,SW,225,0.0,0.0,89,0.00,,,0.00,WUHU216HW,2013-06-09 08:07:00,
2013-06-09 04:12:00,54.0,50.9,30.17,SW,225,0.0,0.0,89,0.00,,,0.00,WUHU216HW,2013-06-09 08:12:00,
2013-06-09 04:17:00,54.0,50.9,30.17,SW,225,0.0,0.0,89,0.00,,,0.00,WUHU216HW,2013-06-09 08:17:00,
2013-06-09 04:22:00,53.8,50.7,30.17,SW,225,0.0,0.0,89,0.00,,,0.00,WUHU216HW,2013-06-09 08:22:00,
2013-06-09 04:27:00,53.6,50.5,30.17,SW,225,0.0,0.0,89,0.00,,,0.00,WUHU216HW,2013-06-09 08:27:00,
2013-06-09 04:32:00,53.6,50.5,30.17,SW,225,0.0,0.0,89,0.00,,,0.00,WUHU216HW,2013-06-09 08:32:00,
2013-06-09 04:37:00,53.6,50.5,30.17,SW,225,0.0,0.0,89,0.00,,,0.00,WUHU216HW,2013-06-09 08:37:00,
2013-06-09 04:42:00,53.5,50.3,30.18,SW,225,0.0,0.0,89,0.00,,,0.00,WUHU216HW,2013-06-09 08:42:00,
2013-06-09 04:47:00,53.3,50.1,30.18,SW,225,0.0,0.0,89,0.00,,,0.00,WUHU216HW,2013-06-09 08:47:00,
2013-06-09 04:52:00,53.1,50.0,30.18,SW,225,0.0,0.0,89,0.00,,,0.00,WUHU216HW,2013-06-09 08:52:00,
2013-06-09 04:57:00,53.1,50.0,30.18,SW,225,0.0,0.0,89,0.00,,,0.00,WUHU216HW,2013-06-09 08:57:00,
2013-06-09 05:02:00,53.1,50.0,30.18,SW,225,0.0,0.0,89,0.00,,,0.00,WUHU216HW,2013-06-09 09:02:00,
2013-06-09 05:07:00,52.9,50.0,30.19,WSW,248,0.0,0.0,90,0.00,,,0.00,WUHU216HW,2013-06-09 09:07:00,
2013-06-09 05:12:00,52.9,50.0,30.19,SW,225,0.0,0.0,90,0.00,,,0.00,WUHU216HW,2013-06-09 09:12:00,
2013-06-09 05:17:00,52.9,50.0,30.19,SW,225,0.0,0.0,90,0.00,,,0.00,WUHU216HW,2013-06-09 09:17:00,
2013-06-09 05:22:00,52.9,50.0,30.19,SW,225,0.0,0.0,90,0.00,,,0.00,WUHU216HW,2013-06-09 09:22:00,
2013-06-09 05:27:00,52.7,49.9,30.19,WSW,248,0.0,0.0,90,0.00,,,0.00,WUHU216HW,2013-06-09 09:27:00,
2013-06-09 05:32:00,52.7,49.9,30.19,SW,225,0.0,0.0,90,0.00,,,0.00,WUHU216HW,2013-06-09 09:32:00,
2013-06-09 05:37:00,52.7,49.9,30.19,SW,225,0.0,0.0,90,0.00,,,0.00,WUHU216HW,2013-06-09 09:37:00,
2013-06-09 05:42:00,52.7,49.9,30.19,SW,225,0.0,0.0,90,0.00,,,0.00,WUHU216HW,2013-06-09 09:42:00,
2013-06-09 05:47:00,52.7,49.9,30.19,SW,225,0.0,0.0,90,0.00,,,0.00,WUHU216HW,2013-06-09 09:47:00,
2013-06-09 05:52:00,52.7,50.1,30.19,SW,225,0.0,0.0,91,0.00,,,0.00,WUHU216HW,2013-06-09 09:52:00,
2013-06-09 05:57:00,52.7,50.1,30.20,WSW,248,0.0,0.0,91,0.00,,,0.00,WUHU216HW,2013-06-09 09:57:00,
2013-06-09 06:02:00,52.7,50.1,30.20,SW,225,0.0,0.0,91,0.00,,,0.00,WUHU216HW,2013-06-09 10:02:00,
2013-06-09 06:07:00,52.9,50.3,30.20,SW,225,0.0,0.0,91,0.00,,,0.00,WUHU216HW,2013-06-09 10:07:00,
2013-06-09 06:12:00,52.9,50.3,30.20,SW,225,0.0,0.0,91,0.00,,,0.00,WUHU216HW,2013-06-09 10:12:00,
2013-06-09 06:17:00,53.3,50.7,30.20,WSW,248,0.0,0.0,91,0.00,,,0.00,WUHU216HW,2013-06-09 10:17:00,
2013-06-09 06:22:00,53.6,51.3,30.21,SW,225,0.0,0.0,92,0.00,,,0.00,WUHU216HW,2013-06-09 10:22:00,
2013-06-09 06:27:00,54.2,51.8,30.21,SW,225,0.0,0.0,92,0.00,,,0.00,WUHU216HW,2013-06-09 10:27:00,
2013-06-09 06:32:00,54.5,52.2,30.21,SW,225,0.0,0.0,92,0.00,,,0.00,WUHU216HW,2013-06-09 10:32:00,
2013-06-09 06:37:00,55.1,52.7,30.21,SW,225,0.0,0.0,92,0.00,,,0.00,WUHU216HW,2013-06-09 10:37:00,
2013-06-09 06:42:00,56.0,53.6,30.21,WSW,248,0.0,0.0,92,0.00,,,0.00,WUHU216HW,2013-06-09 10:42:00,
2013-06-09 06:47:00,57.4,55.1,30.22,WSW,248,0.0,0.0,92,0.00,,,0.00,WUHU216HW,2013-06-09 10:47:00,
2013-06-09 06:52:00,58.9,56.5,30.22,WSW,248,0.0,0.0,92,0.00,,,0.00,WUHU216HW,2013-06-09 10:52:00,
2013-06-09 06:57:00,60.7,58.3,30.22,SW,225,0.0,0.0,92,0.00,,,0.00,WUHU216HW,2013-06-09 10:57:00,
2013-06-09 07:02:00,62.6,59.4,30.22,SW,225,0.0,0.0,89,0.00,,,0.00,WUHU216HW,2013-06-09 11:02:00,
2013-06-09 07:07:00,63.4,59.1,30.22,WSW,248,0.0,0.0,86,0.00,,,0.00,WUHU216HW,2013-06-09 11:07:00,
2013-06-09 07:12:00,62.8,57.9,30.22,WSW,248,0.0,0.0,84,0.00,,,0.00,WUHU216HW,2013-06-09 11:12:00,
2013-06-09 07:17:00,62.1,56.9,30.22,SW,225,0.0,0.0,83,0.00,,,0.00,WUHU216HW,2013-06-09 11:17:00,
2013-06-09 07:22:00,61.4,56.2,30.22,WSW,248,0.0,0.0,83,0.00,,,0.00,WUHU216HW,2013-06-09 11:22:00,
2013-06-09 07:27:00,60.5,55.4,30.23,SW,225,0.0,0.0,83,0.00,,,0.00,WUHU216HW,2013-06-09 11:27:00,
2013-06-09 07:32:00,60.1,55.3,30.22,SSW,203,0.0,0.0,84,0.00,,,0.00,WUHU216HW,2013-06-09 11:32:00,
2013-06-09 07:37:00,59.9,55.4,30.23,SW,225,0.0,0.0,85,0.00,,,0.00,WUHU216HW,2013-06-09 11:37:00,
2013-06-09 07:42:00,59.9,55.4,30.23,SW,225,0.0,0.0,85,0.00,,,0.00,WUHU216HW,2013-06-09 11:42:00,
2013-06-09 07:47:00,59.9,55.4,30.23,SW,225,0.0,0.0,85,0.00,,,0.00,WUHU216HW,2013-06-09 11:47:00,
2013-06-09 07:52:00,59.9,55.4,30.23,SW,225,0.0,0.0,85,0.00,,,0.00,WUHU216HW,2013-06-09 11:52:00,
2013-06-09 07:57:00,59.9,55.8,30.23,SW,225,0.0,0.0,86,0.00,,,0.00,WUHU216HW,2013-06-09 11:57:00,
2013-06-09 08:02:00,59.9,55.8,30.23,SSW,203,0.0,0.0,86,0.00,,,0.00,WUHU216HW,2013-06-09 12:02:00,
2013-06-09 08:07:00,60.1,56.0,30.23,SW,225,0.0,0.0,86,0.00,,,0.00,WUHU216HW,2013-06-09 12:07:00,
2013-06-09 08:12:00,60.1,56.0,30.24,SW,225,0.0,0.0,86,0.00,,,0.00,WUHU216HW,2013-06-09 12:12:00,
2013-06-09 08:17:00,60.5,56.6,30.24,SW,225,0.0,0.0,87,0.00,,,0.00,WUHU216HW,2013-06-09 12:17:00,
2013-06-09 08:22:00,60.8,56.7,30.24,SW,225,0.0,0.0,86,0.00,,,0.00,WUHU216HW,2013-06-09 12:22:00,
2013-06-09 08:27:00,61.2,57.0,30.24,SW,225,0.0,0.0,86,0.00,,,0.00,WUHU216HW,2013-06-09 12:27:00,
2013-06-09 08:32:00,61.6,57.3,30.24,SW,225,0.0,0.0,86,0.00,,,0.00,WUHU216HW,2013-06-09 12:32:00,
2013-06-09 08:37:00,62.3,57.7,30.25,SW,225,0.0,0.0,85,0.00,,,0.00,WUHU216HW,2013-06-09 12:37:00,
2013-06-09 08:42:00,62.3,57.7,30.25,WSW,248,0.0,0.0,85,0.00,,,0.00,WUHU216HW,2013-06-09 12:42:00,
2013-06-09 08:47:00,62.6,57.7,30.25,West,270,0.0,0.0,84,0.00,,,0.00,WUHU216HW,2013-06-09 12:47:00,
2013-06-09 08:52:00,63.0,58.1,30.25,SW,225,0.0,0.0,84,0.00,,,0.00,WUHU216HW,2013-06-09 12:52:00,
2013-06-09 08:57:00,63.2,57.9,30.25,South,180,0.0,0.0,83,0.00,,,0.00,WUHU216HW,2013-06-09 12:57:00,
2013-06-09 09:02:00,63.5,58.2,30.25,WSW,248,0.0,0.0,83,0.00,,,0.00,WUHU216HW,2013-06-09 13:02:00,
2013-06-09 09:07:00,64.1,58.8,30.25,SW,225,0.0,0.0,83,0.00,,,0.00,WUHU216HW,2013-06-09 13:07:00,
2013-06-09 09:12:00,64.8,59.9,30.25,SW,225,0.0,0.0,84,0.00,,,0.00,WUHU216HW,2013-06-09 13:12:00,
2013-06-09 09:17:00,65.2,59.9,30.25,SW,225,0.0,0.0,83,0.00,,,0.00,WUHU216HW,2013-06-09 13:17:00,
2013-06-09 09:22:00,65.5,59.9,30.25,WSW,248,0.0,0.0,82,0.00,,,0.00,WUHU216HW,2013-06-09 13:22:00,
2013-06-09 09:27:00,65.9,59.6,30.25,SW,225,0.0,0.0,80,0.00,,,0.00,WUHU216HW,2013-06-09 13:27:00,
2013-06-09 09:32:00,66.4,60.5,30.25,WSW,248,0.0,0.0,81,0.00,,,0.00,WUHU216HW,2013-06-09 13:32:00,
2013-06-09 09:37:00,67.1,60.8,30.25,WSW,248,0.0,0.0,80,0.00,,,0.00,WUHU216HW,2013-06-09 13:37:00,
2013-06-09 09:42:00,67.7,61.0,30.25,SW,225,0.0,0.0,79,0.00,,,0.00,WUHU216HW,2013-06-09 13:42:00,
2013-06-09 09:47:00,67.9,60.9,30.25,West,270,0.0,0.0,78,0.00,,,0.00,WUHU216HW,2013-06-09 13:47:00,
2013-06-09 09:52:00,67.9,60.4,30.25,SW,225,0.0,0.0,77,0.00,,,0.00,WUHU216HW,2013-06-09 13:52:00,
2013-06-09 09:57:00,67.9,60.4,30.24,West,270,0.0,0.0,77,0.00,,,0.00,WUHU216HW,2013-06-09 13:57:00,
2013-06-09 10:02:00,67.9,60.4,30.24,WSW,248,0.0,0.0,77,0.00,,,0.00,WUHU216HW,2013-06-09 14:02:00,
2013-06-09 10:07:00,68.0,60.2,30.24,SW,225,0.0,0.0,76,0.00,,,0.00,WUHU216HW,2013-06-09 14:07:00,
2013-06-09 10:12:00,68.2,60.0,30.24,SW,225,0.0,0.0,75,0.00,,,0.00,WUHU216HW,2013-06-09 14:12:00,
2013-06-09 10:17:00,67.9,59.3,30.24,SW,225,0.0,0.0,74,0.00,,,0.00,WUHU216HW,2013-06-09 14:17:00,
2013-06-09 10:22:00,68.0,59.9,30.24,WSW,248,0.0,0.0,75,0.00,,,0.00,WUHU216HW,2013-06-09 14:22:00,
2013-06-09 10:27:00,68.0,59.5,30.24,ESE,113,0.0,0.0,74,0.00,,,0.00,WUHU216HW,2013-06-09 14:27:00,
2013-06-09 10:32:00,68.0,58.7,30.24,East,90,0.0,0.0,72,0.00,,,0.00,WUHU216HW,2013-06-09 14:32:00,
2013-06-09 10:37:00,67.5,58.1,30.24,ENE,68,0.0,0.0,72,0.00,,,0.00,WUHU216HW,2013-06-09 14:37:00,
2013-06-09 10:42:00,68.6,59.6,30.24,ENE,68,0.0,0.0,73,0.00,,,0.00,WUHU216HW,2013-06-09 14:42:00,
2013-06-09 10:47:00,69.3,60.6,30.24,SW,225,0.0,0.0,74,0.00,,,0.00,WUHU216HW,2013-06-09 14:47:00,
2013-06-09 10:52:00,70.6,61.8,30.23,West,270,0.0,0.0,74,0.00,,,0.00,WUHU216HW,2013-06-09 14:52:00,
2013-06-09 10:57:00,71.3,61.0,30.23,East,90,0.0,0.0,70,0.00,,,0.00,WUHU216HW,2013-06-09 14:57:00,
2013-06-09 11:02:00,71.1,60.4,30.24,ESE,113,0.0,0.0,69,0.00,,,0.00,WUHU216HW,2013-06-09 15:02:00,
2013-06-09 11:07:00,70.9,59.4,30.24,SSW,203,0.0,0.0,67,0.00,,,0.00,WUHU216HW,2013-06-09 15:07:00,
2013-06-09 11:12:00,71.3,59.3,30.24,SSW,203,0.0,0.0,66,0.00,,,0.00,WUHU216HW,2013-06-09 15:12:00,
2013-06-09 11:17:00,72.0,61.7,30.24,WSW,248,0.0,0.0,70,0.00,,,0.00,WUHU216HW,2013-06-09 15:17:00,
2013-06-09 11:22:00,72.9,62.2,30.24,SSW,203,0.0,0.0,69,0.00,,,0.00,WUHU216HW,2013-06-09 15:22:00,
2013-06-09 11:27:00,73.8,62.7,30.24,ESE,113,0.0,0.0,68,0.00,,,0.00,WUHU216HW,2013-06-09 15:27:00,
2013-06-09 11:32:00,73.6,60.2,30.24,SE,135,0.0,0.0,63,0.00,,,0.00,WUHU216HW,2013-06-09 15:32:00,
2013-06-09 11:37:00,73.1,61.0,30.24,SW,225,0.0,0.0,66,0.00,,,0.00,WUHU216HW,2013-06-09 15:37:00,
2013-06-09 11:42:00,73.4,61.4,30.24,WSW,248,0.0,0.0,66,0.00,,,0.00,WUHU216HW,2013-06-09 15:42:00,
2013-06-09 11:47:00,73.6,58.9,30.24,North,0,0.0,0.0,60,0.00,,,0.00,WUHU216HW,2013-06-09 15:47:00,
2013-06-09 11:52:00,72.4,57.3,30.24,NE,45,0.0,0.0,59,0.00,,,0.00,WUHU216HW,2013-06-09 15:52:00,
2013-06-09 11:57:00,73.1,60.1,30.24,WSW,248,0.0,0.0,64,0.00,,,0.00,WUHU216HW,2013-06-09 15:57:00,
2013-06-09 12:02:00,74.2,60.3,30.24,SSW,203,0.0,0.0,62,0.00,,,0.00,WUHU216HW,2013-06-09 16:02:00,
2013-06-09 12:07:00,74.9,61.0,30.24,ESE,113,0.0,0.0,62,0.00,,,0.00,WUHU216HW,2013-06-09 16:07:00,
2013-06-09 12:12:00,75.4,61.9,30.24,WSW,248,0.0,0.0,63,0.00,,,0.00,WUHU216HW,2013-06-09 16:12:00,
2013-06-09 12:17:00,75.2,56.0,30.24,NE,45,0.0,0.0,51,0.00,,,0.00,WUHU216HW,2013-06-09 16:17:00,
2013-06-09 12:22:00,73.4,58.1,30.23,East,90,0.0,0.0,59,0.00,,,0.00,WUHU216HW,2013-06-09 16:22:00,
2013-06-09 12:27:00,73.1,56.9,30.23,ENE,68,0.0,0.0,57,0.00,,,0.00,WUHU216HW,2013-06-09 16:27:00,
2013-06-09 12:32:00,72.9,59.0,30.23,SE,135,0.0,0.0,62,0.00,,,0.00,WUHU216HW,2013-06-09 16:32:00,
2013-06-09 12:37:00,72.9,58.2,30.23,NNE,23,0.0,0.0,60,0.00,,,0.00,WUHU216HW,2013-06-09 16:37:00,
2013-06-09 12:42:00,72.0,58.7,30.23,East,90,0.0,0.0,63,0.00,,,0.00,WUHU216HW,2013-06-09 16:42:00,
2013-06-09 12:47:00,72.7,60.2,30.23,SE,135,0.0,0.0,65,0.00,,,0.00,WUHU216HW,2013-06-09 16:47:00,
2013-06-09 12:52:00,73.6,59.8,30.23,East,90,0.0,0.0,62,0.00,,,0.00,WUHU216HW,2013-06-09 16:52:00,
2013-06-09 12:57:00,73.4,58.7,30.23,SE,135,0.0,0.0,60,0.00,,,0.00,WUHU216HW,2013-06-09 16:57:00,
2013-06-09 13:02:00,73.3,58.1,30.23,SW,225,0.0,0.0,59,0.00,,,0.00,WUHU216HW,2013-06-09 17:02:00,
2013-06-09 13:07:00,73.4,57.2,30.23,ENE,68,0.0,0.0,57,0.00,,,0.00,WUHU216HW,2013-06-09 17:07:00,
2013-06-09 13:12:00,72.9,57.2,30.22,East,90,0.0,0.0,58,0.00,,,0.00,WUHU216HW,2013-06-09 17:12:00,
2013-06-09 13:17:00,73.3,57.0,30.22,ESE,113,0.0,0.0,57,0.00,,,0.00,WUHU216HW,2013-06-09 17:17:00,
2013-06-09 13:22:00,73.4,60.0,30.22,ESE,113,0.0,0.0,63,0.00,,,0.00,WUHU216HW,2013-06-09 17:22:00,
2013-06-09 13:27:00,73.4,58.1,30.22,ESE,113,0.0,0.0,59,0.00,,,0.00,WUHU216HW,2013-06-09 17:27:00,
2013-06-09 13:32:00,73.4,54.6,30.22,ENE,68,0.0,0.0,52,0.00,,,0.00,WUHU216HW,2013-06-09 17:32:00,
2013-06-09 13:37:00,72.4,56.7,30.22,WSW,248,0.0,0.0,58,0.00,,,0.00,WUHU216HW,2013-06-09 17:37:00,
2013-06-09 13:42:00,72.9,58.7,30.22,SW,225,0.0,0.0,61,0.00,,,0.00,WUHU216HW,2013-06-09 17:42:00,
2013-06-09 13:47:00,73.8,59.0,30.22,NE,45,0.0,0.0,60,0.00,,,0.00,WUHU216HW,2013-06-09 17:47:00,
2013-06-09 13:52:00,74.0,57.3,30.22,ESE,113,0.0,0.0,56,0.00,,,0.00,WUHU216HW,2013-06-09 17:52:00,
2013-06-09 13:57:00,74.9,60.1,30.22,WSW,248,0.0,0.0,60,0.00,,,0.00,WUHU216HW,2013-06-09 17:57:00,
2013-06-09 14:02:00,75.2,59.5,30.22,WNW,293,0.0,0.0,58,0.00,,,0.00,WUHU216HW,2013-06-09 18:02:00,
2013-06-09 14:07:00,75.6,58.8,30.22,SSE,158,0.0,0.0,56,0.00,,,0.00,WUHU216HW,2013-06-09 18:07:00,
2013-06-09 14:12:00,76.0,56.6,30.22,ENE,68,0.0,0.0,51,0.00,,,0.00,WUHU216HW,2013-06-09 18:12:00,
2013-06-09 14:17:00,75.6,59.8,30.21,WSW,248,0.0,0.0,58,0.00,,,0.00,WUHU216HW,2013-06-09 18:17:00,
2013-06-09 14:22:00,75.2,58.5,30.21,SSE,158,0.0,0.0,56,0.00,,,0.00,WUHU216HW,2013-06-09 18:22:00,
2013-06-09 14:27:00,75.2,59.0,30.21,ENE,68,0.0,0.0,57,0.00,,,0.00,WUHU216HW,2013-06-09 18:27:00,
2013-06-09 14:32:00,74.5,55.3,30.21,NE,45,0.0,0.0,51,0.00,,,0.00,WUHU216HW,2013-06-09 18:32:00,
2013-06-09 14:37:00,74.9,56.1,30.21,NW,315,0.0,0.0,52,0.00,,,0.00,WUHU216HW,2013-06-09 18:37:00,
2013-06-09 14:42:00,75.2,57.0,30.21,ENE,68,0.0,0.0,53,0.00,,,0.00,WUHU216HW,2013-06-09 18:42:00,
2013-06-09 14:47:00,74.9,58.6,30.21,East,90,0.0,0.0,57,0.00,,,0.00,WUHU216HW,2013-06-09 18:47:00,
2013-06-09 14:52:00,74.5,56.3,30.20,North,0,0.0,0.0,53,0.00,,,0.00,WUHU216HW,2013-06-09 18:52:00,
2013-06-09 14:57:00,75.1,57.8,30.20,WSW,248,0.0,0.0,55,0.00,,,0.00,WUHU216HW,2013-06-09 18:57:00,
2013-06-09 15:02:00,75.4,56.6,30.21,NE,45,0.0,0.0,52,0.00,,,0.00,WUHU216HW,2013-06-09 19:02:00,
2013-06-09 15:07:00,75.6,56.8,30.21,ESE,113,0.0,0.0,52,0.00,,,0.00,WUHU216HW,2013-06-09 19:07:00,
2013-06-09 15:12:00,75.4,57.2,30.21,East,90,0.0,0.0,53,0.00,,,0.00,WUHU216HW,2013-06-09 19:12:00,
2013-06-09 15:17:00,75.2,57.4,30.20,NE,45,0.0,0.0,54,0.00,,,0.00,WUHU216HW,2013-06-09 19:17:00,
2013-06-09 15:22:00,74.7,56.9,30.20,ESE,113,0.0,0.0,54,0.00,,,0.00,WUHU216HW,2013-06-09 19:22:00,
2013-06-09 15:27:00,75.6,59.3,30.20,SSW,203,0.0,0.0,57,0.00,,,0.00,WUHU216HW,2013-06-09 19:27:00,
2013-06-09 15:32:00,77.0,60.6,30.20,SSE,158,0.0,0.0,57,0.00,,,0.00,WUHU216HW,2013-06-09 19:32:00,
2013-06-09 15:37:00,76.9,56.3,30.20,ENE,68,0.0,0.0,49,0.00,,,0.00,WUHU216HW,2013-06-09 19:37:00,
2013-06-09 15:42:00,76.3,58.0,30.20,East,90,0.0,0.0,53,0.00,,,0.00,WUHU216HW,2013-06-09 19:42:00,
2013-06-09 15:47:00,76.5,59.1,30.20,SE,135,0.0,0.0,55,0.00,,,0.00,WUHU216HW,2013-06-09 19:47:00,
2013-06-09 15:52:00,76.7,57.2,30.20,East,90,0.0,0.0,51,0.00,,,0.00,WUHU216HW,2013-06-09 19:52:00,
2013-06-09 15:57:00,77.2,59.8,30.19,SSW,203,0.0,0.0,55,0.00,,,0.00,WUHU216HW,2013-06-09 19:57:00,
2013-06-09 16:02:00,77.9,57.9,30.19,SW,225,0.0,0.0,50,0.00,,,0.00,WUHU216HW,2013-06-09 20:02:00,
2013-06-09 16:07:00,77.9,59.4,30.19,SSE,158,0.0,0.0,53,0.00,,,0.00,WUHU216HW,2013-06-09 20:07:00,
2013-06-09 16:12:00,78.1,58.6,30.19,ESE,113,0.0,0.0,51,0.00,,,0.00,WUHU216HW,2013-06-09 20:12:00,
2013-06-09 16:17:00,78.1,56.8,30.19,ENE,68,0.0,0.0,48,0.00,,,0.00,WUHU216HW,2013-06-09 20:17:00,
2013-06-09 16:22:00,77.4,57.4,30.19,ENE,68,0.0,0.0,50,0.00,,,0.00,WUHU216HW,2013-06-09 20:22:00,
2013-06-09 16:27:00,77.2,58.2,30.19,SE,135,0.0,0.0,52,0.00,,,0.00,WUHU216HW,2013-06-09 20:27:00,
2013-06-09 16:32:00,77.9,56.6,30.19,SE,135,0.0,0.0,48,0.00,,,0.00,WUHU216HW,2013-06-09 20:32:00,
2013-06-09 16:37:00,79.0,59.9,30.18,SW,225,0.0,0.0,52,0.00,,,0.00,WUHU216HW,2013-06-09 20:37:00,
2013-06-09 16:42:00,79.6,56.3,30.18,ENE,68,0.0,0.0,45,0.00,,,0.00,WUHU216HW,2013-06-09 20:42:00,
2013-06-09 16:47:00,77.8,55.9,30.18,ENE,68,0.0,0.0,47,0.00,,,0.00,WUHU216HW,2013-06-09 20:47:00,
2013-06-09 16:52:00,77.2,56.6,30.18,ENE,68,0.0,0.0,49,0.00,,,0.00,WUHU216HW,2013-06-09 20:52:00,
2013-06-09 16:57:00,77.0,57.1,30.18,NNE,23,0.0,0.0,50,0.00,,,0.00,WUHU216HW,2013-06-09 20:57:00,
2013-06-09 17:02:00,77.0,56.4,30.18,East,90,0.0,0.0,49,0.00,,,0.00,WUHU216HW,2013-06-09 21:02:00,
2013-06-09 17:07:00,77.0,55.8,30.18,NE,45,0.0,0.0,48,0.00,,,0.00,WUHU216HW,2013-06-09 21:07:00,
2013-06-09 17:12:00,77.2,56.6,30.18,NNW,338,0.0,0.0,49,0.00,,,0.00,WUHU216HW,2013-06-09 21:12:00,
2013-06-09 17:17:00,76.3,55.8,30.19,ENE,68,0.0,0.0,49,0.00,,,0.00,WUHU216HW,2013-06-09 21:17:00,
2013-06-09 17:22:00,76.0,55.4,30.18,SE,135,0.0,0.0,49,0.00,,,0.00,WUHU216HW,2013-06-09 21:22:00,
2013-06-09 17:27:00,76.1,58.8,30.18,East,90,0.0,0.0,55,0.00,,,0.00,WUHU216HW,2013-06-09 21:27:00,
2013-06-09 17:32:00,75.6,58.3,30.18,North,0,0.0,0.0,55,0.00,,,0.00,WUHU216HW,2013-06-09 21:32:00,
2013-06-09 17:37:00,75.8,59.9,30.18,East,90,0.0,0.0,58,0.00,,,0.00,WUHU216HW,2013-06-09 21:37:00,
2013-06-09 17:42:00,76.0,58.2,30.18,East,90,0.0,0.0,54,0.00,,,0.00,WUHU216HW,2013-06-09 21:42:00,
2013-06-09 17:47:00,75.8,58.0,30.18,SE,135,0.0,0.0,54,0.00,,,0.00,WUHU216HW,2013-06-09 21:47:00,
2013-06-09 17:52:00,75.2,59.0,30.17,ENE,68,0.0,0.0,57,0.00,,,0.00,WUHU216HW,2013-06-09 21:52:00,
2013-06-09 17:57:00,74.9,59.6,30.17,NNE,23,0.0,0.0,59,0.00,,,0.00,WUHU216HW,2013-06-09 21:57:00,
2013-06-09 18:02:00,74.7,59.9,30.18,ESE,113,0.0,0.0,60,0.00,,,0.00,WUHU216HW,2013-06-09 22:02:00,
2013-06-09 18:07:00,74.7,59.0,30.18,NNW,338,0.0,0.0,58,0.00,,,0.00,WUHU216HW,2013-06-09 22:07:00,
2013-06-09 18:12:00,74.3,57.6,30.18,ESE,113,0.0,0.0,56,0.00,,,0.00,WUHU216HW,2013-06-09 22:12:00,
2013-06-09 18:17:00,74.2,58.4,30.18,SE,135,0.0,0.0,58,0.00,,,0.00,WUHU216HW,2013-06-09 22:17:00,
2013-06-09 18:22:00,73.8,57.5,30.18,ENE,68,0.0,0.0,57,0.00,,,0.00,WUHU216HW,2013-06-09 22:22:00,
2013-06-09 18:27:00,73.4,58.1,30.17,North,0,0.0,0.0,59,0.00,,,0.00,WUHU216HW,2013-06-09 22:27:00,
2013-06-09 18:32:00,73.8,58.5,30.18,North,0,0.0,0.0,59,0.00,,,0.00,WUHU216HW,2013-06-09 22:32:00,
2013-06-09 18:37:00,74.2,57.9,30.18,NE,45,0.0,0.0,57,0.00,,,0.00,WUHU216HW,2013-06-09 22:37:00,
2013-06-09 18:42:00,74.9,58.2,30.17,ENE,68,0.0,0.0,56,0.00,,,0.00,WUHU216HW,2013-06-09 22:42:00,
2013-06-09 18:47:00,75.6,59.3,30.17,NNE,23,0.0,0.0,57,0.00,,,0.00,WUHU216HW,2013-06-09 22:47:00,
2013-06-09 18:52:00,75.2,58.0,30.17,NE,45,0.0,0.0,55,0.00,,,0.00,WUHU216HW,2013-06-09 22:52:00,
2013-06-09 18:57:00,74.9,57.1,30.17,ENE,68,0.0,0.0,54,0.00,,,0.00,WUHU216HW,2013-06-09 22:57:00,
2013-06-09 19:02:00,73.8,57.5,30.17,NE,45,0.0,0.0,57,0.00,,,0.00,WUHU216HW,2013-06-09 23:02:00,
2013-06-09 19:07:00,72.7,57.5,30.17,SE,135,0.0,0.0,59,0.00,,,0.00,WUHU216HW,2013-06-09 23:07:00,
2013-06-09 19:12:00,72.0,57.8,30.17,ENE,68,0.0,0.0,61,0.00,,,0.00,WUHU216HW,2013-06-09 23:12:00,
2013-06-09 19:17:00,71.3,58.1,30.17,NE,45,0.0,0.0,63,0.00,,,0.00,WUHU216HW,2013-06-09 23:17:00,
2013-06-09 19:22:00,70.9,58.2,30.17,ENE,68,0.0,0.0,64,0.00,,,0.00,WUHU216HW,2013-06-09 23:22:00,
2013-06-09 19:27:00,70.4,58.1,30.16,ENE,68,0.0,0.0,65,0.00,,,0.00,WUHU216HW,2013-06-09 23:27:00,
2013-06-09 19:32:00,70.2,57.4,30.17,NNW,338,0.0,0.0,64,0.00,,,0.00,WUHU216HW,2013-06-09 23:32:00,
2013-06-09 19:37:00,70.0,56.9,30.17,ENE,68,0.0,0.0,63,0.00,,,0.00,WUHU216HW,2013-06-09 23:37:00,
2013-06-09 19:43:00,69.8,57.5,30.17,NE,45,0.0,0.0,65,0.00,,,0.00,WUHU216HW,2013-06-09 23:43:00,
2013-06-09 19:48:00,69.7,57.8,30.17,NE,45,0.0,0.0,66,0.00,,,0.00,WUHU216HW,2013-06-09 23:48:00,
2013-06-09 19:53:00,69.5,57.6,30.17,ENE,68,0.0,0.0,66,0.00,,,0.00,WUHU216HW,2013-06-09 23:53:00,
2013-06-09 19:58:00,69.1,57.2,30.17,ENE,68,0.0,0.0,66,0.00,,,0.00,WUHU216HW,2013-06-09 23:58:00,
2013-06-09 20:03:00,68.9,57.5,30.17,ENE,68,0.0,0.0,67,0.00,,,0.00,WUHU216HW,2013-06-10 00:03:00,
2013-06-09 20:07:00,68.8,56.9,30.17,ENE,68,0.0,0.0,66,0.00,,,0.00,WUHU216HW,2013-06-10 00:07:00,
2013-06-09 20:12:00,68.6,57.2,30.17,ENE,68,0.0,0.0,67,0.00,,,0.00,WUHU216HW,2013-06-10 00:12:00,
2013-06-09 20:17:00,68.2,56.8,30.17,ENE,68,0.0,0.0,67,0.00,,,0.00,WUHU216HW,2013-06-10 00:17:00,
2013-06-09 20:22:00,68.0,56.7,30.17,ENE,68,0.0,0.0,67,0.00,,,0.00,WUHU216HW,2013-06-10 00:22:00,
2013-06-09 20:27:00,67.9,56.9,30.17,ENE,68,0.0,0.0,68,0.00,,,0.00,WUHU216HW,2013-06-10 00:27:00,
2013-06-09 20:32:00,67.5,56.6,30.17,ENE,68,0.0,0.0,68,0.00,,,0.00,WUHU216HW,2013-06-10 00:32:00,
2013-06-09 20:37:00,67.3,56.8,30.18,ENE,68,0.0,0.0,69,0.00,,,0.00,WUHU216HW,2013-06-10 00:37:00,
2013-06-09 20:42:00,67.0,56.4,30.17,ENE,68,0.0,0.0,69,0.00,,,0.00,WUHU216HW,2013-06-10 00:42:00,
2013-06-09 20:47:00,66.8,56.7,30.17,ENE,68,0.0,0.0,70,0.00,,,0.00,WUHU216HW,2013-06-10 00:47:00,
2013-06-09 20:52:00,66.4,56.3,30.17,ENE,68,0.0,0.0,70,0.00,,,0.00,WUHU216HW,2013-06-10 00:52:00,
2013-06-09 20:57:00,66.2,56.9,30.17,ENE,68,0.0,0.0,72,0.00,,,0.00,WUHU216HW,2013-06-10 00:57:00,
2013-06-09 21:02:00,66.1,56.3,30.17,ENE,68,0.0,0.0,71,0.00,,,0.00,WUHU216HW,2013-06-10 01:02:00,
2013-06-09 21:07:00,65.9,56.6,30.17,ENE,68,0.0,0.0,72,0.00,,,0.00,WUHU216HW,2013-06-10 01:07:00,
2013-06-09 21:12:00,65.5,56.3,30.17,ENE,68,0.0,0.0,72,0.00,,,0.00,WUHU216HW,2013-06-10 01:12:00,
2013-06-09 21:17:00,65.2,56.3,30.17,ENE,68,0.0,0.0,73,0.00,,,0.00,WUHU216HW,2013-06-10 01:17:00,
2013-06-09 21:22:00,65.0,56.2,30.17,ENE,68,0.0,0.0,73,0.00,,,0.00,WUHU216HW,2013-06-10 01:22:00,
2013-06-09 21:27:00,65.0,56.2,30.17,ENE,68,0.0,0.0,73,0.00,,,0.00,WUHU216HW,2013-06-10 01:27:00,
2013-06-09 21:32:00,64.8,56.4,30.17,ENE,68,0.0,0.0,74,0.00,,,0.00,WUHU216HW,2013-06-10 01:32:00,
2013-06-09 21:37:00,64.4,56.0,30.17,ENE,68,0.0,0.0,74,0.00,,,0.00,WUHU216HW,2013-06-10 01:37:00,
2013-06-09 21:43:00,64.6,56.2,30.17,ENE,68,0.0,0.0,74,0.00,,,0.00,WUHU216HW,2013-06-10 01:43:00,
2013-06-09 21:48:00,64.6,56.5,30.17,ESE,113,0.0,0.0,75,0.00,,,0.00,WUHU216HW,2013-06-10 01:48:00,
2013-06-09 21:53:00,64.6,56.5,30.17,ENE,68,0.0,0.0,75,0.00,,,0.00,WUHU216HW,2013-06-10 01:53:00,
2013-06-09 21:58:00,64.6,56.5,30.17,ESE,113,0.0,0.0,75,0.00,,,0.00,WUHU216HW,2013-06-10 01:58:00,
2013-06-09 22:03:00,64.6,56.5,30.17,ESE,113,0.0,0.0,75,0.00,,,0.00,WUHU216HW,2013-06-10 02:03:00,
2013-06-09 22:08:00,64.6,56.5,30.17,ENE,68,0.0,0.0,75,0.00,,,0.00,WUHU216HW,2013-06-10 02:08:00,
2013-06-09 22:13:00,64.6,56.5,30.17,ESE,113,0.0,0.0,75,0.00,,,0.00,WUHU216HW,2013-06-10 02:13:00,
2013-06-09 22:18:00,64.6,56.5,30.17,ENE,68,0.0,0.0,75,0.00,,,0.00,WUHU216HW,2013-06-10 02:18:00,
2013-06-09 22:23:00,64.6,56.5,30.17,ESE,113,0.0,0.0,75,0.00,,,0.00,WUHU216HW,2013-06-10 02:23:00,
2013-06-09 22:28:00,64.6,56.2,30.17,ESE,113,0.0,0.0,74,0.00,,,0.00,WUHU216HW,2013-06-10 02:28:00,
2013-06-09 22:33:00,64.6,56.5,30.17,East,90,0.0,0.0,75,0.00,,,0.00,WUHU216HW,2013-06-10 02:33:00,
2013-06-09 22:38:00,64.6,56.5,30.17,East,90,0.0,0.0,75,0.00,,,0.00,WUHU216HW,2013-06-10 02:38:00,
2013-06-09 22:43:00,64.6,56.2,30.17,SSE,158,0.0,0.0,74,0.00,,,0.00,WUHU216HW,2013-06-10 02:43:00,
2013-06-09 22:48:00,64.6,56.2,30.17,ENE,68,0.0,0.0,74,0.00,,,0.00,WUHU216HW,2013-06-10 02:48:00,
2013-06-09 22:53:00,64.4,56.3,30.17,ENE,68,0.0,0.0,75,0.00,,,0.00,WUHU216HW,2013-06-10 02:53:00,
2013-06-09 22:58:00,64.6,56.2,30.17,East,90,0.0,0.0,74,0.00,,,0.00,WUHU216HW,2013-06-10 02:58:00,
2013-06-09 23:03:00,64.6,56.2,30.16,East,90,0.0,0.0,74,0.00,,,0.00,WUHU216HW,2013-06-10 03:03:00,
2013-06-09 23:08:00,64.6,56.2,30.16,East,90,0.0,0.0,74,0.00,,,0.00,WUHU216HW,2013-06-10 03:08:00,
2013-06-09 23:13:00,64.4,56.0,30.16,East,90,0.0,0.0,74,0.00,,,0.00,WUHU216HW,2013-06-10 03:13:00,
2013-06-09 23:18:00,64.4,56.0,30.16,East,90,0.0,0.0,74,0.00,,,0.00,WUHU216HW,2013-06-10 03:18:00,
2013-06-09 23:23:00,64.4,56.0,30.15,ESE,113,0.0,0.0,74,0.00,,,0.00,WUHU216HW,2013-06-10 03:23:00,
2013-06-09 23:28:00,64.1,55.6,30.15,ESE,113,0.0,0.0,74,0.00,,,0.00,WUHU216HW,2013-06-10 03:28:00,
2013-06-09 23:33:00,63.9,55.8,30.15,ENE,68,0.0,0.0,75,0.00,,,0.00,WUHU216HW,2013-06-10 03:33:00,
2013-06-09 23:38:00,63.9,55.8,30.15,SE,135,0.0,0.0,75,0.00,,,0.00,WUHU216HW,2013-06-10 03:38:00,
2013-06-09 23:43:00,63.9,55.8,30.15,NE,45,0.0,0.0,75,0.00,,,0.00,WUHU216HW,2013-06-10 03:43:00,
2013-06-09 23:48:00,63.9,55.8,30.15,ESE,113,0.0,0.0,75,0.00,,,0.00,WUHU216HW,2013-06-10 03:48:00,
2013-06-09 23:53:00,63.9,55.8,30.15,NE,45,0.0,0.0,75,0.00,,,0.00,WUHU216HW,2013-06-10 03:53:00,
2013-06-09 23:58:00,64.1,56.0,30.15,NE,45,0.0,0.0,75,0.00,,,0.00,WUHU216HW,2013-06-10 03:58:00,